Time;durP1;ratioP1;P1;durP2;ratioP2;P2;SDS_P1;SDS_P2;PMS_P1;PMS_P2;Temp;Humidity;BMP_temperature;BMP_pressure;BME280_temperature;BME280_humidity;BME280_pressure;Samples;Min_cycle;Max_cycle;Signal;HPM_P1;HPM_P2
2023/12/05 00:00:30;;;;;;;39.30;28.00;;;;;;;1.31;100.00;99854.00;6276440;22;19999;-86
2023/12/05 00:02:55;;;;;;;39.30;28.40;;;;;;;1.41;100.00;99862.91;6276123;22;20007;-89
2023/12/05 00:05:21;;;;;;;36.88;27.90;;;;;;;1.44;100.00;99867.84;6276725;22;20054;-79
2023/12/05 00:07:46;;;;;;;37.78;28.77;;;;;;;1.17;100.00;99817.28;6276302;22;20000;-83
2023/12/05 00:10:11;;;;;;;37.00;27.38;;;;;;;1.17;100.00;99817.28;6276413;22;20038;-84
2023/12/05 00:12:37;;;;;;;40.25;29.63;;;;;;;1.50;100.00;99865.97;6276513;22;20414;-81
2023/12/05 00:15:03;;;;;;;38.20;28.40;;;;;;;1.48;100.00;99860.94;6276250;22;20031;-81
2023/12/05 00:17:29;;;;;;;39.15;28.77;;;;;;;1.17;100.00;99813.00;6276354;22;20011;-82
2023/12/05 00:19:57;;;;;;;40.33;28.70;;;;;;;1.44;100.00;99852.59;6276351;22;20264;-87
2023/12/05 00:22:25;;;;;;;39.78;28.45;;;;;;;1.53;100.00;99863.28;6276318;22;20000;-87
2023/12/05 00:24:50;;;;;;;38.08;28.05;;;;;;;1.52;100.00;99854.00;6276436;22;20074;-80
2023/12/05 00:27:16;;;;;;;37.67;28.65;;;;;;;1.55;100.00;99858.94;6276122;22;20026;-80
2023/12/05 00:29:41;;;;;;;38.33;28.38;;;;;;;0.47;100.00;99678.63;6267432;22;20020;-80
2023/12/05 00:32:07;;;;;;;37.70;28.17;;;;;;;1.57;100.00;99852.06;6245481;23;20008;-80
2023/12/05 00:34:32;;;;;;;37.45;28.23;;;;;;;1.58;100.00;99849.50;6245162;23;20430;-82
2023/12/05 00:36:57;;;;;;;38.80;28.60;;;;;;;1.51;100.00;99832.81;6245596;23;20004;-78
2023/12/05 00:39:22;;;;;;;39.05;27.80;;;;;;;0.99;100.00;99745.97;6245394;23;20008;-81
2023/12/05 00:41:48;;;;;;;39.38;28.42;;;;;;;1.58;100.00;99849.50;6245516;23;20011;-85
2023/12/05 00:44:14;;;;;;;41.13;29.65;;;;;;;1.58;100.00;99844.41;6248038;22;20018;-85
2023/12/05 00:46:42;;;;;;;38.95;28.52;;;;;;;1.60;100.00;99849.44;6276602;22;20004;-80
2023/12/05 00:49:08;;;;;;;39.60;27.83;;;;;;;1.56;100.00;99837.69;6275910;22;20000;-85
2023/12/05 00:51:36;;;;;;;40.17;29.02;;;;;;;1.34;100.00;99804.69;6274373;22;20057;-80
2023/12/05 00:58:14;;;;;;;40.20;28.65;;;;;;;0.96;100.00;99741.00;6221125;23;20024;-79
2023/12/05 01:01:03;;;;;;;40.00;29.27;;;;;;;1.57;100.00;99835.09;6215148;23;20008;-90
2023/12/05 01:03:56;;;;;;;41.25;29.58;;;;;;;1.68;100.00;99845.66;6187062;23;20008;-86
2023/12/05 01:06:30;;;;;;;40.70;29.02;;;;;;;1.05;100.00;99745.69;6215035;23;20068;-88
2023/12/05 01:08:56;;;;;;;42.03;30.15;;;;;;;0.88;100.00;99721.84;6215063;23;20001;-89
2023/12/05 01:11:22;;;;;;;42.20;30.38;;;;;;;1.44;100.00;99801.72;6214735;23;20005;-89
2023/12/05 01:13:47;;;;;;;41.55;30.33;;;;;;;1.69;100.00;99836.31;6215149;23;20035;-91
2023/12/05 01:16:14;;;;;;;44.30;32.08;;;;;;;1.68;100.00;99837.22;6215179;23;20407;-86
2023/12/05 01:18:39;;;;;;;42.20;29.52;;;;;;;1.61;100.00;99829.00;6214988;23;20079;-90
2023/12/05 01:21:05;;;;;;;42.80;31.48;;;;;;;1.09;100.00;99731.16;6215017;23;20043;-92
2023/12/05 01:23:30;;;;;;;42.38;30.83;;;;;;;1.69;100.00;99836.31;6214823;23;20035;-90
2023/12/05 01:25:56;;;;;;;43.90;31.48;;;;;;;1.17;100.00;99746.06;6214581;23;19996;-91
2023/12/05 01:28:21;;;;;;;45.10;31.77;;;;;;;1.51;100.00;99802.28;6215161;23;20099;-90
2023/12/05 01:30:46;;;;;;;44.90;32.28;;;;;;;1.72;100.00;99829.38;6215029;23;20008;-90
2023/12/05 01:33:12;;;;;;;45.53;30.80;;;;;;;1.64;100.00;99810.22;6214970;23;20028;-88
2023/12/05 01:35:37;;;;;;;46.75;32.25;;;;;;;1.46;100.00;99785.56;6214500;23;20004;-91
2023/12/05 01:38:03;;;;;;;46.55;31.55;;;;;;;1.75;100.00;99830.94;6214808;23;20000;-92
2023/12/05 01:40:28;;;;;;;45.03;33.25;;;;;;;1.75;100.00;99828.41;6214959;23;20001;-91
2023/12/05 01:42:53;;;;;;;44.80;32.17;;;;;;;1.78;100.00;99835.09;6215110;23;20470;-89
2023/12/05 01:45:22;;;;;;;46.60;32.80;;;;;;;1.80;100.00;99828.22;6214824;23;20005;-92
2023/12/05 01:47:48;;;;;;;47.75;34.05;;;;;;;1.80;100.00;99828.22;6214390;23;20450;-92
2023/12/05 01:50:20;;;;;;;46.33;33.72;;;;;;;1.64;100.00;99798.31;6214467;23;20043;-89
2023/12/05 01:52:52;;;;;;;48.17;34.15;;;;;;;1.79;100.00;99832.50;6216111;23;20079;-90
2023/12/05 01:55:18;;;;;;;;;;;;;;;1.82;100.00;99832.34;6221534;22;20012;-91
2023/12/05 01:57:45;;;;;;;47.58;34.05;;;;;;;1.83;100.00;99834.00;6246920;23;19982;-90
2023/12/05 02:00:11;;;;;;;47.90;33.17;;;;;;;1.79;100.00;99840.13;6247467;23;20003;-92
2023/12/05 02:02:37;;;;;;;47.65;33.55;;;;;;;1.82;100.00;99839.97;6246970;23;20422;-90
2023/12/05 02:05:03;;;;;;;47.92;32.75;;;;;;;1.85;100.00;99844.09;6246654;23;20011;-91
2023/12/05 02:07:31;;;;;;;47.95;33.45;;;;;;;1.78;100.00;99835.09;6247027;23;20326;-90
2023/12/05 02:09:56;;;;;;;46.97;33.28;;;;;;;1.86;100.00;99843.22;6247064;23;20004;-88
2023/12/05 02:12:22;;;;;;;48.60;33.03;;;;;;;1.86;100.00;99844.03;6247113;23;20004;-90
2023/12/05 02:14:48;;;;;;;47.65;33.58;;;;;;;1.65;100.00;99801.69;6247246;23;20007;-90
2023/12/05 02:17:22;;;;;;;46.90;32.25;;;;;;;1.91;100.00;99833.66;6247319;23;20004;-89
2023/12/05 02:20:26;;;;;;;50.97;33.92;;;;;;;1.91;100.00;99843.84;6246945;23;20000;-87
2023/12/05 02:23:02;;;;;;;48.45;33.13;;;;;;;1.92;100.00;99841.25;6246893;23;20004;-85
2023/12/05 02:25:27;;;;;;;47.63;34.00;;;;;;;1.91;100.00;99839.59;6247577;23;20008;-83
2023/12/05 02:27:53;;;;;;;49.55;34.83;;;;;;;1.63;100.00;99794.13;6250930;23;20007;-80
2023/12/05 02:30:19;;;;;;;48.05;33.47;;;;;;;1.92;100.00;99838.69;6252411;23;20004;-88
2023/12/05 02:32:44;;;;;;;49.67;33.38;;;;;;;1.91;100.00;99839.59;6247344;23;20004;-88
2023/12/05 02:35:13;;;;;;;51.08;32.92;;;;;;;1.57;100.00;99785.91;6246974;23;20091;-91
2023/12/05 02:38:05;;;;;;;51.17;33.70;;;;;;;1.79;100.00;99813.84;6247098;23;19996;-87
2023/12/05 02:40:40;;;;;;;49.13;33.55;;;;;;;1.96;100.00;99835.09;6246658;23;20008;-87
2023/12/05 02:43:16;;;;;;;49.92;33.17;;;;;;;1.71;100.00;99791.25;6246805;23;20000;-87
2023/12/05 02:45:46;;;;;;;51.28;33.92;;;;;;;1.96;100.00;99829.19;6244958;23;20008;-90
2023/12/05 02:48:12;;;;;;;50.38;34.03;;;;;;;1.97;100.00;99831.69;6247348;23;20006;-89
2023/12/05 02:50:37;;;;;;;47.70;32.72;;;;;;;1.97;100.00;99829.16;6246603;23;20008;-90
2023/12/05 02:53:03;;;;;;;51.13;33.85;;;;;;;1.78;100.00;99792.66;6246517;23;20007;-84
2023/12/05 02:55:34;;;;;;;50.50;33.15;;;;;;;1.76;100.00;99789.34;6246604;23;20039;-89
2023/12/05 02:57:59;;;;;;;50.88;33.63;;;;;;;2.01;100.00;99837.47;6247082;23;20000;-87
2023/12/05 03:00:24;;;;;;;47.35;32.75;;;;;;;1.86;100.00;99808.41;6246705;23;19996;-85
2023/12/05 03:02:50;;;;;;;48.25;31.58;;;;;;;2.02;100.00;99828.94;6246789;23;20003;-89
2023/12/05 03:05:17;;;;;;;49.75;32.78;;;;;;;1.96;100.00;99824.09;6246677;23;20004;-83
2023/12/05 03:07:42;;;;;;;47.22;32.53;;;;;;;1.92;100.00;99807.31;6247034;23;20062;-87
2023/12/05 03:14:01;;;;;;;47.70;32.17;;;;;;;0.28;100.00;99532.09;6254244;22;20033;-89
2023/12/05 03:16:51;;;;;;;51.53;33.78;;;;;;;2.07;100.00;99818.56;6277361;22;20015;-84
2023/12/05 03:19:32;;;;;;;52.30;35.55;;;;;;;0.45;100.00;99556.78;6276742;22;19999;-90
2023/12/05 03:21:57;;;;;;;46.03;30.83;;;;;;;1.39;100.00;99703.63;6277428;22;20035;-84
2023/12/05 03:24:25;;;;;;;47.78;32.40;;;;;;;2.06;100.00;99815.16;6277707;22;20038;-90
2023/12/05 03:26:51;;;;;;;50.78;33.03;;;;;;;2.10;100.00;99815.88;6276766;22;20082;-91
2023/12/05 03:29:16;;;;;;;48.72;32.17;;;;;;;2.11;100.00;99817.53;6277686;22;20046;-89
2023/12/05 03:31:42;;;;;;;53.13;33.03;;;;;;;1.91;100.00;99788.66;6277179;22;20038;-90
2023/12/05 03:34:07;;;;;;;50.88;32.90;;;;;;;1.54;100.00;99730.09;6251423;22;20024;-86
2023/12/05 03:36:57;;;;;;;51.90;34.17;;;;;;;2.12;100.00;99821.72;6246627;22;20429;-88
2023/12/05 03:39:23;;;;;;;47.25;31.90;;;;;;;0.62;100.00;99585.75;6246421;23;20000;-82
2023/12/05 03:41:48;;;;;;;51.42;32.38;;;;;;;1.06;100.00;99655.00;6246549;22;20000;-82
2023/12/05 03:44:13;;;;;;;50.00;32.40;;;;;;;2.12;100.00;99827.63;6246434;22;20087;-85
2023/12/05 03:46:39;;;;;;;50.85;32.05;;;;;;;1.46;100.00;99715.16;6246619;22;20008;-87
2023/12/05 03:49:04;;;;;;;52.28;33.72;;;;;;;2.15;100.00;99830.03;6246287;22;20038;-90
2023/12/05 03:51:30;;;;;;;50.60;32.30;;;;;;;2.16;100.00;99825.78;6246708;22;20030;-88
2023/12/05 03:53:55;;;;;;;48.72;32.78;;;;;;;2.17;100.00;99822.34;6219080;23;20536;-90
2023/12/05 03:56:21;;;;;;;53.33;32.63;;;;;;;2.18;100.00;99824.00;6246357;22;20008;-93
2023/12/05 03:58:46;;;;;;;51.10;32.85;;;;;;;2.19;100.00;99825.66;6246677;22;20057;-88
2023/12/05 04:01:11;;;;;;;51.10;32.10;;;;;;;2.19;100.00;99831.56;6258272;22;20000;-83
2023/12/05 04:03:37;;;;;;;50.78;32.53;;;;;;;2.11;100.00;99817.53;6254032;22;20062;-88
2023/12/05 04:06:03;;;;;;;51.42;32.95;;;;;;;2.20;100.00;99834.94;6244759;23;20011;-92
2023/12/05 04:08:28;;;;;;;48.38;31.80;;;;;;;2.21;100.00;99836.59;6247245;22;20004;-90
2023/12/05 04:10:55;;;;;;;49.10;32.13;;;;;;;2.21;100.00;99839.16;6246599;22;20031;-90
2023/12/05 04:13:20;;;;;;;50.00;32.97;;;;;;;2.16;100.00;99828.31;6244921;23;20012;-92
2023/12/05 04:15:46;;;;;;;50.30;31.88;;;;;;;2.05;100.00;99810.16;6246461;22;20010;-93
2023/12/05 04:18:11;;;;;;;51.38;32.15;;;;;;;1.89;100.00;99794.75;6244776;23;20033;-89
2023/12/05 04:20:36;;;;;;;51.55;31.95;;;;;;;2.21;100.00;99844.25;6245880;22;19999;-92
2023/12/05 04:23:02;;;;;;;49.47;31.73;;;;;;;1.92;100.00;99797.13;6246180;22;20000;-90
2023/12/05 04:25:27;;;;;;;49.97;31.48;;;;;;;2.03;100.00;99814.47;6244219;23;20008;-86
2023/12/05 04:27:52;;;;;;;52.13;32.15;;;;;;;2.03;100.00;99807.66;6246057;22;20000;-92
2023/12/05 04:30:18;;;;;;;52.30;33.63;;;;;;;2.26;100.00;99860.13;6246700;22;20004;-90
2023/12/05 04:32:43;;;;;;;53.60;32.63;;;;;;;2.26;100.00;99858.44;6270004;22;20330;-91
2023/12/05 04:35:08;;;;;;;54.10;34.33;;;;;;;2.27;100.00;99851.63;6246205;22;20322;-92
2023/12/05 04:37:34;;;;;;;52.75;33.33;;;;;;;2.27;100.00;99861.81;6244207;23;20016;-92
2023/12/05 04:39:59;;;;;;;53.40;31.92;;;;;;;2.20;100.00;99842.59;6246582;22;20102;-91
2023/12/05 04:42:24;;;;;;;52.33;31.52;;;;;;;2.30;100.00;99859.94;6245718;22;20000;-88
2023/12/05 04:44:50;;;;;;;51.95;31.10;;;;;;;2.31;100.00;99855.66;6243689;23;20011;-86
2023/12/05 04:47:15;;;;;;;49.78;32.17;;;;;;;2.11;100.00;99827.72;6245976;22;20000;-89
2023/12/05 04:49:40;;;;;;;49.72;30.83;;;;;;;2.35;100.00;99864.81;6246143;22;20008;-89
2023/12/05 04:52:05;;;;;;;49.67;30.33;;;;;;;2.13;100.00;99826.75;6246566;22;20031;-94
2023/12/05 04:54:31;;;;;;;47.75;30.30;;;;;;;2.34;100.00;99862.34;6246703;22;20087;-92
2023/12/05 04:56:56;;;;;;;49.85;31.60;;;;;;;2.34;100.00;99870.81;6246388;22;20051;-93
2023/12/05 04:59:24;;;;;;;49.55;30.77;;;;;;;2.36;100.00;99875.84;6243623;23;20453;-81
2023/12/05 05:01:50;;;;;;;49.63;30.98;;;;;;;2.36;100.00;99870.72;6246673;22;20008;-91
2023/12/05 05:04:15;;;;;;;51.28;30.92;;;;;;;1.94;100.00;99808.06;6246145;22;20008;-86
2023/12/05 05:06:41;;;;;;;46.58;29.55;;;;;;;2.39;100.00;99875.72;6245674;22;20008;-91
2023/12/05 05:09:07;;;;;;;46.97;30.88;;;;;;;2.38;100.00;99882.53;6246192;22;20010;-88
2023/12/05 05:11:33;;;;;;;49.22;30.73;;;;;;;2.16;100.00;99846.97;6245518;22;20001;-91
2023/12/05 05:13:58;;;;;;;47.78;30.40;;;;;;;2.39;100.00;99879.09;6245758;22;20000;-91
2023/12/05 05:16:23;;;;;;;52.22;32.22;;;;;;;2.08;100.00;99833.78;6245988;22;20001;-88
2023/12/05 05:18:51;;;;;;;47.60;30.95;;;;;;;2.43;100.00;99893.34;6245929;22;20054;-90
2023/12/05 05:21:17;;;;;;;50.88;32.08;;;;;;;2.42;100.00;99890.84;6245524;22;20126;-89
2023/12/05 05:23:42;;;;;;;51.03;30.65;;;;;;;2.24;100.00;99856.81;6245760;22;20004;-88
2023/12/05 05:26:07;;;;;;;48.13;31.02;;;;;;;2.06;100.00;99827.06;6246916;22;20004;-89
2023/12/05 05:28:33;;;;;;;50.22;31.02;;;;;;;2.25;100.00;99861.84;6246290;23;20007;-86
2023/12/05 05:30:58;;;;;;;48.88;30.55;;;;;;;2.27;100.00;99869.44;6247926;22;20311;-88
2023/12/05 05:33:24;;;;;;;50.03;30.10;;;;;;;2.47;100.00;99894.03;6252047;22;20016;-81
2023/12/05 05:35:50;;;;;;;47.53;29.35;;;;;;;2.40;100.00;99887.56;6261525;22;20090;-85
2023/12/05 05:38:15;;;;;;;47.25;29.20;;;;;;;2.47;100.00;99894.03;6248167;22;20001;-83
2023/12/05 05:40:42;;;;;;;47.65;29.77;;;;;;;2.25;100.00;99864.41;6247845;22;20039;-91
2023/12/05 05:43:07;;;;;;;46.90;29.02;;;;;;;2.45;100.00;99896.63;6248305;22;20445;-92
2023/12/05 05:45:33;;;;;;;44.97;28.13;;;;;;;2.17;100.00;99848.66;6248169;22;20083;-92
2023/12/05 05:47:58;;;;;;;43.88;26.80;;;;;;;2.36;100.00;99871.59;6246485;23;20075;-91
2023/12/05 05:50:23;;;;;;;45.60;28.77;;;;;;;1.97;100.00;99810.50;6247779;22;20090;-89
2023/12/05 05:52:49;;;;;;;44.63;27.35;;;;;;;2.23;100.00;99847.53;6247400;22;20315;-92
2023/12/05 05:55:14;;;;;;;46.45;27.42;;;;;;;2.33;100.00;99869.16;6248426;22;20019;-91
2023/12/05 05:57:40;;;;;;;44.65;28.10;;;;;;;2.54;100.00;99898.78;6247649;22;20008;-88
2023/12/05 06:00:06;;;;;;;44.88;28.20;;;;;;;2.56;100.00;99901.28;6247514;22;20004;-91
2023/12/05 06:02:31;;;;;;;43.92;26.92;;;;;;;2.53;100.00;99893.75;6247483;22;20008;-91
2023/12/05 06:04:57;;;;;;;47.25;28.17;;;;;;;2.43;100.00;99883.13;6247803;22;20095;-91
2023/12/05 06:07:23;;;;;;;46.00;28.30;;;;;;;2.30;100.00;99865.03;6247026;22;20004;-91
2023/12/05 06:09:49;;;;;;;46.90;28.70;;;;;;;2.51;100.00;99906.56;6247455;22;20000;-90
2023/12/05 06:12:14;;;;;;;47.72;29.05;;;;;;;2.51;100.00;99909.13;6247567;22;20036;-91
2023/12/05 06:14:39;;;;;;;46.38;28.17;;;;;;;2.46;100.00;99905.09;6247485;22;20014;-91
2023/12/05 06:17:05;;;;;;;46.53;28.98;;;;;;;2.20;100.00;99879.06;6247138;22;20023;-92
2023/12/05 06:19:30;;;;;;;46.80;28.65;;;;;;;2.38;100.00;99912.28;6247328;22;20102;-91
2023/12/05 06:21:55;;;;;;;45.10;27.88;;;;;;;1.90;100.00;99837.94;6247304;22;20414;-90
2023/12/05 06:24:21;;;;;;;45.85;28.98;;;;;;;2.21;100.00;99901.09;6247277;22;20008;-88
2023/12/05 06:26:46;;;;;;;45.92;27.90;;;;;;;2.27;100.00;99926.31;6247458;22;20407;-80
2023/12/05 06:29:12;;;;;;;46.03;26.95;;;;;;;2.05;100.00;99892.44;6247464;22;19996;-93
2023/12/05 06:31:38;;;;;;;45.88;28.13;;;;;;;2.25;100.00;99934.91;6247796;22;20008;-92
2023/12/05 06:34:04;;;;;;;49.60;28.90;;;;;;;1.95;100.00;99886.09;6247820;23;20034;-94
2023/12/05 06:36:29;;;;;;;47.08;29.02;;;;;;;2.21;100.00;99936.75;6248348;22;20422;-81
2023/12/05 06:38:54;;;;;;;47.53;27.60;;;;;;;2.08;100.00;99911.88;6248476;22;20419;-86
2023/12/05 06:41:20;;;;;;;52.35;30.00;;;;;;;2.19;100.00;99937.72;6248865;22;20027;-87
2023/12/05 06:43:45;;;;;;;46.83;29.73;;;;;;;1.99;100.00;99913.09;6248630;22;20000;-93
2023/12/05 06:46:10;;;;;;;49.53;29.58;;;;;;;1.93;100.00;99914.19;6248939;22;20014;-92
2023/12/05 06:48:36;;;;;;;51.38;29.85;;;;;;;1.97;100.00;99919.97;6255523;22;20056;-94
2023/12/05 06:51:01;;;;;;;52.75;30.10;;;;;;;2.09;100.00;99947.47;6255343;22;20097;-90
2023/12/05 06:53:26;;;;;;;49.80;30.33;;;;;;;1.97;100.00;99931.00;6253895;22;20023;-92
2023/12/05 06:55:52;;;;;;;50.17;30.83;;;;;;;2.05;100.00;99951.03;6260658;22;20007;-93
2023/12/05 06:58:18;;;;;;;54.05;30.20;;;;;;;2.03;100.00;99951.97;6273844;22;20032;-86
2023/12/05 07:00:43;;;;;;;54.20;31.85;;;;;;;2.01;100.00;99944.41;6246837;23;20394;-89
2023/12/05 07:03:08;;;;;;;54.40;31.27;;;;;;;1.91;100.00;99935.50;6248769;22;20004;-91
2023/12/05 07:05:34;;;;;;;55.42;32.45;;;;;;;1.99;100.00;99956.38;6251108;22;20003;-88
2023/12/05 07:11:46;;;;;;;53.88;31.40;;;;;;;1.98;100.00;99970.84;6247391;23;20023;-89
2023/12/05 07:14:48;;;;;;;56.47;32.22;;;;;;;1.96;100.00;99970.06;6246345;23;20004;-91
2023/12/05 07:17:32;;;;;;;59.67;32.72;;;;;;;0.56;100.00;99747.66;6243252;22;20094;-78
2023/12/05 07:20:04;;;;;;;53.75;31.58;;;;;;;0.86;100.00;99810.88;6247491;22;20050;-83
2023/12/05 07:22:48;;;;;;;51.55;31.00;;;;;;;0.35;100.00;99734.97;6271182;22;20074;-87
2023/12/05 07:25:13;;;;;;;53.47;31.35;;;;;;;1.86;100.00;99994.22;6246951;22;20036;-78
2023/12/05 07:27:48;;;;;;;52.75;30.90;;;;;;;1.87;100.00;99998.47;6246263;22;20544;-80
2023/12/05 07:30:19;;;;;;;51.15;30.80;;;;;;;1.24;100.00;99905.16;6245872;22;20318;-79
2023/12/05 07:33:36;;;;;;;55.08;32.67;;;;;;;1.93;100.00;100005.81;6245784;22;20004;-88
2023/12/05 07:36:56;;;;;;;51.45;30.85;;;;;;;1.90;100.00;100008.50;6246632;22;20004;-82
2023/12/05 07:39:22;;;;;;;52.78;31.88;;;;;;;0.48;100.00;99794.56;6245690;23;20071;-81
2023/12/05 07:41:56;;;;;;;55.85;31.58;;;;;;;1.34;100.00;99931.88;6246400;22;20027;-79
2023/12/05 07:44:22;;;;;;;54.17;31.75;;;;;;;1.90;100.00;100021.25;6246967;22;20102;-79
2023/12/05 07:46:49;;;;;;;55.60;31.25;;;;;;;1.93;100.00;100023.66;6246851;22;20491;-79
2023/12/05 07:50:04;;;;;;;55.72;31.70;;;;;;;1.96;100.00;100026.06;6243728;22;20016;-92
2023/12/05 07:52:38;;;;;;;57.08;32.20;;;;;;;1.05;100.00;99882.16;6244889;23;20014;-91
2023/12/05 07:55:21;;;;;;;54.22;32.75;;;;;;;0.90;100.00;99873.44;6245585;22;20335;-81
2023/12/05 07:57:47;;;;;;;56.55;32.17;;;;;;;1.69;100.00;100001.75;6246163;22;20023;-84
2023/12/05 08:00:19;;;;;;;56.17;33.53;;;;;;;0.44;100.00;99808.28;6245279;22;20012;-82
2023/12/05 08:08:44;;;;;;;59.63;33.13;;;;;;;1.46;100.00;99973.81;6246474;23;20025;-82
2023/12/05 08:17:17;;;;;;;56.08;33.55;;;;;;;1.29;100.00;99967.69;6217471;23;20090;-87
2023/12/05 08:20:19;;;;;;;50.70;31.33;;;;;;;1.62;100.00;100018.97;6217436;23;20043;-82
2023/12/05 08:23:23;;;;;;;54.90;31.27;;;;;;;0.27;100.00;99817.34;6217262;23;20152;-85
2023/12/05 08:32:29;;;;;;;48.60;29.50;;;;;;;0.27;100.00;99821.59;6124400;23;20065;-87
2023/12/05 08:42:33;;;;;;;52.00;31.95;;;;;;;1.94;100.00;100098.31;6065264;23;20082;-82
2023/12/05 08:45:45;;;;;;;49.40;30.98;;;;;;;1.94;100.00;100101.69;6065203;23;20015;-79
2023/12/05 08:48:41;;;;;;;54.60;30.85;;;;;;;1.93;100.00;100107.66;6065578;23;20373;-81
2023/12/05 08:51:12;;;;;;;55.55;31.27;;;;;;;1.93;100.00;100110.22;6065694;23;20414;-83
2023/12/05 08:53:38;;;;;;;49.75;29.73;;;;;;;0.32;100.00;99849.38;6065313;23;20007;-86
2023/12/05 08:56:53;;;;;;;47.28;29.52;;;;;;;1.95;100.00;100110.97;6065148;23;20046;-81
2023/12/05 08:59:25;;;;;;;48.95;29.67;;;;;;;1.93;100.00;100107.66;6065576;23;20417;-84
2023/12/05 09:01:56;;;;;;;48.42;29.38;;;;;;;1.42;100.00;100037.53;6076776;23;20015;-83
2023/12/05 09:04:22;;;;;;;46.33;28.83;;;;;;;1.80;100.00;100087.84;6152546;23;20036;-83
2023/12/05 09:06:47;;;;;;;47.78;28.80;;;;;;;1.92;100.00;100102.66;6205181;23;20009;-82
2023/12/05 09:09:12;;;;;;;49.03;29.40;;;;;;;1.77;100.00;100078.63;6215083;23;20004;-82
2023/12/05 09:11:38;;;;;;;48.60;28.15;;;;;;;1.60;100.00;100050.44;6219494;23;20008;-82
2023/12/05 09:14:05;;;;;;;45.22;29.05;;;;;;;2.01;100.00;100115.03;6245589;23;20437;-80
2023/12/05 09:16:31;;;;;;;46.95;28.40;;;;;;;2.09;100.00;100120.66;6245387;23;20001;-83
2023/12/05 09:18:56;;;;;;;49.63;29.40;;;;;;;2.14;100.00;100133.19;6245040;23;20460;-81
2023/12/05 09:21:22;;;;;;;50.30;28.83;;;;;;;2.05;100.00;100114.00;6243075;23;20015;-82
2023/12/05 09:23:47;;;;;;;48.38;30.50;;;;;;;1.99;100.00;100107.44;6245007;22;20004;-83
2023/12/05 09:26:14;;;;;;;48.65;29.10;;;;;;;2.10;100.00;100129.94;6245012;23;20012;-84
2023/12/05 09:28:39;;;;;;;48.40;28.70;;;;;;;1.98;100.00;100102.41;6242968;23;20000;-85
2023/12/05 09:38:52;;;;;;;45.85;28.02;;;;;;;1.62;100.00;100052.03;6215160;23;20055;-83
2023/12/05 09:41:17;;;;;;;46.70;28.45;;;;;;;2.28;100.00;100164.06;6214113;23;20088;-81
2023/12/05 09:43:44;;;;;;;44.58;28.80;;;;;;;2.10;100.00;100136.75;6214898;23;20086;-83
2023/12/05 09:46:11;;;;;;;46.08;27.42;;;;;;;1.91;100.00;100098.44;6214589;23;20445;-85
2023/12/05 09:48:46;;;;;;;46.60;27.45;;;;;;;2.20;100.00;100149.06;6214978;23;20051;-80
2023/12/05 09:51:14;;;;;;;44.33;27.58;;;;;;;1.76;100.00;100081.19;6230351;22;20026;-82
2023/12/05 09:56:31;;;;;;;45.58;26.95;;;;;;;2.09;100.00;100146.09;6221628;23;20058;-80
2023/12/05 09:59:03;;;;;;;50.08;27.50;;;;;;;1.67;100.00;100072.19;6244895;22;20361;-81
2023/12/05 10:01:30;;;;;;;40.97;26.50;;;;;;;2.34;100.00;100181.63;6245049;22;20042;-82
2023/12/05 10:04:11;;;;;;;46.20;27.58;;;;;;;2.14;100.00;100162.03;6245103;22;20018;-82
2023/12/05 10:06:58;;;;;;;46.90;27.67;;;;;;;2.38;100.00;100183.19;6245127;22;20006;-79
2023/12/05 10:12:47;;;;;;;46.97;28.73;;;;;;;1.96;100.00;100119.44;6244806;23;20019;-78
2023/12/05 10:15:16;;;;;;;45.92;28.05;;;;;;;2.24;100.00;100180.31;6246789;22;20015;-80
2023/12/05 10:17:46;;;;;;;49.88;28.95;;;;;;;2.14;100.00;100156.94;6246704;22;20461;-79
2023/12/05 10:30:10;;;;;;;44.78;27.27;;;;;;;0.88;100.00;99986.19;6277522;22;20023;-82
2023/12/05 10:36:40;;;;;;;45.58;27.77;;;;;;;2.46;100.00;100219.38;6277339;22;20022;-80
2023/12/05 10:46:57;;;;;;;42.03;24.65;;;;;;;2.53;100.00;100227.59;6152793;23;20013;-80
2023/12/05 10:49:23;;;;;;;38.13;22.88;;;;;;;1.56;100.00;100072.63;6153731;23;20021;-79
2023/12/05 10:51:50;;;;;;;36.80;23.67;;;;;;;2.51;100.00;100234.47;6154031;23;20009;-81
2023/12/05 10:54:16;;;;;;;37.85;23.70;;;;;;;2.53;100.00;100240.34;6153518;23;20005;-80
2023/12/05 10:56:58;;;;;;;34.95;22.48;;;;;;;1.80;100.00;100120.94;6153275;23;20107;-84
2023/12/05 10:59:28;;;;;;;37.45;22.27;;;;;;;1.81;100.00;100100.50;6153756;23;20009;-81
2023/12/05 11:04:54;;;;;;;37.85;23.98;;;;;;;2.00;100.00;100156.66;6065506;23;20011;-80
2023/12/05 11:07:20;;;;;;;37.53;23.08;;;;;;;1.32;100.00;100061.66;6066217;23;20007;-81
2023/12/05 11:09:45;;;;;;;38.67;23.23;;;;;;;1.20;100.00;100044.31;6065800;23;20136;-81
2023/12/05 11:12:12;;;;;;;39.00;24.05;;;;;;;1.98;100.00;100186.44;6065600;23;20014;-82
2023/12/05 11:14:45;;;;;;;39.10;23.17;;;;;;;2.38;100.00;100251.97;6065786;23;20011;-81
2023/12/05 11:17:28;;;;;;;37.22;22.88;;;;;;;2.36;100.00;100263.94;6065914;23;20086;-79
2023/12/05 11:20:11;;;;;;;37.38;22.70;;;;;;;2.30;100.00;100259.06;6065975;23;20002;-81
2023/12/05 11:23:15;;;;;;;35.92;21.77;;;;;;;2.28;100.00;100268.50;6064025;23;20512;-83
2023/12/05 11:26:17;;;;;;;35.40;21.40;;;;;;;2.29;100.00;100265.06;6123303;23;20014;-81
2023/12/05 11:29:12;;;;;;;39.15;21.38;;;;;;;2.35;100.00;100267.34;6122497;23;20369;-80
2023/12/05 11:31:54;;;;;;;33.30;20.27;;;;;;;2.10;100.00;100239.44;6124019;23;20006;-80
2023/12/05 11:34:40;;;;;;;34.38;20.90;;;;;;;2.29;100.00;100263.34;6123667;23;20033;-81
2023/12/05 11:37:21;;;;;;;32.60;19.60;;;;;;;0.91;100.00;100069.97;6123753;23;20077;-79
2023/12/05 11:43:08;;;;;;;37.53;21.40;;;;;;;2.15;100.00;100282.56;6222433;23;20018;-77
2023/12/05 11:48:21;;;;;;;39.75;22.13;;;;;;;1.96;100.00;100273.03;6215194;23;20032;-80
2023/12/05 11:50:50;;;;;;;38.40;21.85;;;;;;;1.24;100.00;100156.91;6211426;23;20359;-79
2023/12/05 11:53:18;;;;;;;41.53;23.38;;;;;;;1.22;100.00;100149.34;6215365;23;20009;-80
2023/12/05 11:55:50;;;;;;;40.40;22.55;;;;;;;0.88;100.00;100080.22;6186409;23;20013;-80
2023/12/05 11:58:27;;;;;;;;;;;;;;;2.21;100.00;100298.47;6215724;23;20079;-80
2023/12/05 12:01:06;;;;;;;41.40;25.35;;;;;;;1.31;100.00;100176.19;6215423;23;19943;-80
2023/12/05 12:03:59;;;;;;;43.95;25.23;;;;;;;2.05;100.00;100299.06;6215255;23;20012;-81
2023/12/05 12:06:25;;;;;;;45.45;26.52;;;;;;;1.11;100.00;100166.69;6215351;23;20491;-77
2023/12/05 12:09:02;;;;;;;44.60;25.40;;;;;;;1.37;100.00;100203.91;6215584;23;20005;-82
2023/12/05 12:12:18;;;;;;;44.67;25.73;;;;;;;0.55;100.00;100081.34;6215216;23;20497;-81
2023/12/05 12:14:47;;;;;;;46.13;24.98;;;;;;;1.13;100.00;100187.81;6214713;23;20012;-79
2023/12/05 12:17:24;;;;;;;43.85;24.45;;;;;;;0.74;100.00;100112.03;6215345;23;20039;-82
2023/12/05 12:23:09;;;;;;;47.97;26.02;;;;;;;0.41;100.00;100087.78;6273434;22;20019;-81
2023/12/05 12:29:57;;;;;;;49.05;25.95;;;;;;;1.92;100.00;100319.88;6267148;22;20015;-83
2023/12/05 12:32:22;;;;;;;48.53;25.20;;;;;;;1.70;100.00;100286.72;6275445;22;20014;-83
2023/12/05 12:34:54;;;;;;;47.42;27.83;;;;;;;1.94;100.00;100330.84;6275436;22;20090;-83
2023/12/05 12:41:04;;;;;;;47.13;25.00;;;;;;;1.94;100.00;100333.38;6245192;22;20090;-82
2023/12/05 12:43:30;;;;;;;47.97;25.25;;;;;;;0.76;100.00;100150.09;6243693;23;20008;-84
2023/12/05 12:45:56;;;;;;;48.60;26.35;;;;;;;1.70;100.00;100298.63;6245425;23;20083;-85
2023/12/05 12:59:15;;;;;;;39.80;22.67;;;;;;;2.20;100.00;100350.28;6150571;23;20141;-83
2023/12/05 13:01:53;;;;;;;41.33;22.73;;;;;;;0.43;100.00;100094.44;6152626;23;20005;-83
2023/12/05 13:11:04;;;;;;;36.63;22.70;;;;;;;2.01;100.00;100359.47;6151137;23;20017;-81
2023/12/05 13:13:29;;;;;;;41.03;24.63;;;;;;;1.44;100.00;100269.81;6152127;23;20013;-81
2023/12/05 13:15:55;;;;;;;41.78;23.60;;;;;;;1.33;100.00;100266.81;6152397;23;20013;-82
2023/12/05 13:18:49;;;;;;;42.97;24.63;;;;;;;1.96;100.00;100368.97;6152423;23;20010;-81